createdAt,value
2022-09-13T00:01:38.306Z,99797.02
2022-09-13T00:06:41.515Z,99797.47
2022-09-13T00:11:44.929Z,99794.00
2022-09-13T00:16:48.195Z,99794.43
2022-09-13T00:21:51.550Z,99795.27
2022-09-13T00:26:54.654Z,99797.10
2022-09-13T00:31:58.426Z,99789.91
2022-09-13T00:37:01.686Z,99781.46
2022-09-13T00:42:05.201Z,99769.11
2022-09-13T00:47:08.513Z,99771.67
2022-09-13T00:52:16.352Z,99767.38
2022-09-13T00:57:22.531Z,99760.02
2022-09-13T01:02:28.167Z,99756.52
2022-09-13T01:07:31.586Z,99748.70
2022-09-13T01:13:05.002Z,99751.13
2022-09-13T01:18:09.962Z,99751.42
2022-09-13T01:24:07.475Z,99756.64
2022-09-13T01:29:38.391Z,99753.65
2022-09-13T01:34:59.929Z,99754.90
2022-09-13T01:40:14.733Z,99751.51
2022-09-13T01:45:17.918Z,99754.05
2022-09-13T01:50:36.896Z,99745.94
2022-09-13T01:55:47.068Z,99736.11
2022-09-13T02:01:15.534Z,99736.87
2022-09-13T02:06:24.510Z,99733.36
2022-09-13T02:11:28.744Z,99725.31
2022-09-13T02:16:34.139Z,99718.30
2022-09-13T02:21:44.889Z,99713.72
2022-09-13T02:26:53.625Z,99707.40
2022-09-13T02:32:24.692Z,99704.95
2022-09-13T02:37:32.165Z,99700.25
2022-09-13T02:42:44.111Z,99697.17
2022-09-13T02:48:16.748Z,99696.34
2022-09-13T02:53:27.185Z,99690.27
2022-09-13T02:59:03.582Z,99684.35
2022-09-13T03:04:08.008Z,99682.77
2022-09-13T03:09:12.384Z,99678.02
2022-09-13T03:14:37.876Z,99678.23
2022-09-13T03:20:09.760Z,99677.63
2022-09-13T03:25:20.848Z,99674.92
2022-09-13T03:30:24.262Z,99671.64
2022-09-13T03:35:36.481Z,99668.04
2022-09-13T03:40:52.147Z,99666.73
2022-09-13T03:46:00.475Z,99660.33
2022-09-13T03:51:08.019Z,99657.30
2022-09-13T03:56:20.203Z,99644.80
2022-09-13T04:01:25.159Z,99641.08
2022-09-13T04:06:28.401Z,99642.52
2022-09-13T04:11:33.039Z,99636.53
2022-09-13T04:16:36.271Z,99629.61
2022-09-13T04:21:39.557Z,99622.20
2022-09-13T04:26:42.977Z,99614.59
2022-09-13T04:31:47.245Z,99605.71
2022-09-13T04:36:52.811Z,99596.29
2022-09-13T04:41:56.077Z,99596.17
2022-09-13T04:47:00.722Z,99600.14
2022-09-13T04:52:04.336Z,99594.86
2022-09-13T04:57:07.753Z,99590.82
2022-09-13T05:02:11.300Z,99587.96
2022-09-13T05:07:14.579Z,99579.61
2022-09-13T05:12:18.094Z,99569.03
2022-09-13T05:17:22.062Z,99572.21
2022-09-13T05:22:25.328Z,99570.41
2022-09-13T05:27:28.537Z,99575.36
2022-09-13T05:32:32.871Z,99570.37
2022-09-13T05:37:39.049Z,99572.95
2022-09-13T05:42:42.362Z,99573.52
2022-09-13T05:47:45.773Z,99568.41
2022-09-13T05:52:55.845Z,99569.02
2022-09-13T05:57:59.152Z,99564.01
2022-09-13T06:03:02.365Z,99556.88
2022-09-13T06:08:05.675Z,99550.36
2022-09-13T06:13:09.085Z,99548.71
2022-09-13T06:18:12.294Z,99544.70
2022-09-13T06:23:16.695Z,99542.11
2022-09-13T06:28:21.291Z,99532.16
2022-09-13T06:33:24.579Z,99532.59
2022-09-13T06:38:27.789Z,99532.30
2022-09-13T06:43:31.508Z,99535.52
2022-09-13T06:48:36.620Z,99537.77
2022-09-13T06:53:42.125Z,99547.36
2022-09-13T06:58:48.339Z,99553.56
2022-09-13T07:04:13.120Z,99553.40
2022-09-13T07:09:21.910Z,99564.37
2022-09-13T07:14:27.749Z,99565.63
2022-09-13T07:19:31.753Z,99564.84
2022-09-13T07:24:35.064Z,99563.71
2022-09-13T07:29:38.377Z,99566.16
2022-09-13T07:34:41.685Z,99566.66
2022-09-13T07:39:44.904Z,99570.55
2022-09-13T07:44:48.204Z,99568.63
2022-09-13T07:49:51.626Z,99567.52
2022-09-13T07:54:54.928Z,99569.77
2022-09-13T07:59:58.138Z,99563.37
2022-09-13T08:05:01.656Z,99549.94
2022-09-13T08:10:05.576Z,99548.87
2022-09-13T08:15:08.898Z,99541.17
2022-09-13T08:20:12.404Z,99530.90
2022-09-13T08:25:15.713Z,99522.63
2022-09-13T08:30:19.048Z,99512.79
2022-09-13T08:35:22.336Z,99508.38
2022-09-13T08:40:29.435Z,99509.44
2022-09-13T08:45:33.156Z,99510.11
2022-09-13T08:50:38.512Z,99503.23
2022-09-13T08:56:02.816Z,99501.44
2022-09-13T09:01:12.606Z,99496.89
2022-09-13T09:06:17.529Z,99483.63
2022-09-13T09:11:39.416Z,99479.19
2022-09-13T09:17:05.519Z,99469.19
2022-09-13T09:22:17.532Z,99456.34
2022-09-13T09:27:22.075Z,99453.66
2022-09-13T09:32:37.773Z,99452.23
2022-09-13T09:37:42.734Z,99454.95
2022-09-13T09:42:49.850Z,99451.20
2022-09-13T09:47:55.187Z,99447.27
2022-09-13T09:53:08.629Z,99444.14
2022-09-13T09:58:17.085Z,99439.55
2022-09-13T10:03:27.040Z,99432.73
2022-09-13T10:08:34.536Z,99437.40
2022-09-13T10:13:39.078Z,99433.89
2022-09-13T10:18:44.935Z,99434.20
2022-09-13T10:24:17.750Z,99427.19
2022-09-13T10:29:21.162Z,99413.00
2022-09-13T10:34:30.208Z,99408.04
2022-09-13T10:39:36.799Z,99408.91
2022-09-13T10:44:53.943Z,99397.95
2022-09-13T10:50:02.283Z,99393.09
2022-09-13T10:55:25.639Z,99384.13
2022-09-13T11:00:46.424Z,99379.97
2022-09-13T11:06:24.797Z,99374.04
2022-09-13T11:12:03.230Z,99357.28
2022-09-13T11:17:24.661Z,99345.15
2022-09-13T11:22:46.199Z,99336.21
2022-09-13T11:28:14.906Z,99325.79
2022-09-13T11:33:32.760Z,99312.09
2022-09-13T11:39:08.632Z,99297.64
2022-09-13T11:44:15.226Z,99291.16
2022-09-13T11:49:53.756Z,99286.08
2022-09-13T11:55:05.769Z,99282.06
2022-09-13T12:00:22.937Z,99281.14
2022-09-13T12:05:33.281Z,99281.59
2022-09-13T12:11:05.471Z,99279.15
2022-09-13T12:16:13.422Z,99271.57
2022-09-13T12:21:31.649Z,99264.44
2022-09-13T12:26:59.229Z,99267.27
2022-09-13T12:32:05.955Z,99263.77
2022-09-13T12:37:17.626Z,99268.27
2022-09-13T12:42:32.819Z,99266.17
2022-09-13T12:47:49.755Z,99256.34
2022-09-13T12:53:01.862Z,99251.36
2022-09-13T12:58:30.364Z,99236.15
2022-09-13T13:03:43.942Z,99238.43
2022-09-13T13:08:52.897Z,99221.01
2022-09-13T13:14:09.787Z,99211.38
2022-09-13T13:19:34.363Z,99211.34
2022-09-13T13:24:38.555Z,99200.56
2022-09-13T13:29:42.042Z,99189.98
2022-09-13T13:34:49.761Z,99176.86
2022-09-13T13:40:26.144Z,99171.06
2022-09-13T13:45:29.590Z,99164.95
2022-09-13T13:50:36.242Z,99168.81
2022-09-13T13:55:49.370Z,99171.64
2022-09-13T14:00:55.101Z,99172.48
2022-09-13T14:06:12.701Z,99159.43
2022-09-13T14:11:44.478Z,99150.19
2022-09-13T14:17:25.330Z,99137.34
2022-09-13T14:22:29.629Z,99129.27
2022-09-13T14:27:37.987Z,99115.23
2022-09-13T14:32:46.939Z,99097.36
2022-09-13T14:37:50.390Z,99095.27
2022-09-13T14:42:54.112Z,99083.98
2022-09-13T14:48:04.557Z,99081.10
2022-09-13T14:53:14.554Z,99073.86
2022-09-13T14:58:22.985Z,99075.52
2022-09-13T15:03:27.628Z,99072.79
2022-09-13T15:08:34.113Z,99066.98
2022-09-13T15:13:38.701Z,99064.36
2022-09-13T15:18:41.962Z,99061.33
2022-09-13T15:23:51.522Z,99062.70
2022-09-13T15:29:04.386Z,99049.66
2022-09-13T15:34:24.048Z,99039.42
2022-09-13T15:39:27.565Z,99047.56
2022-09-13T15:44:30.977Z,99052.52
2022-09-13T15:49:34.391Z,99050.64
2022-09-13T15:54:41.547Z,99045.66
2022-09-13T15:59:45.007Z,99037.19
2022-09-13T16:04:48.831Z,99032.80
2022-09-13T16:09:52.854Z,99028.34
2022-09-13T16:14:56.166Z,99023.23
2022-09-13T16:19:59.375Z,99020.21
2022-09-13T16:25:02.685Z,99012.17
2022-09-13T16:30:07.328Z,99000.84
2022-09-13T16:35:12.681Z,98989.76
2022-09-13T16:40:16.253Z,99000.30
2022-09-13T16:45:19.934Z,98995.38
2022-09-13T16:50:23.398Z,98990.38
2022-09-13T16:55:28.154Z,98990.02
2022-09-13T17:00:31.598Z,98988.79
2022-09-13T17:05:34.701Z,98988.89
2022-09-13T17:10:38.626Z,98980.76
2022-09-13T17:15:41.797Z,98971.16
2022-09-13T17:20:50.173Z,98963.01
2022-09-13T17:25:53.475Z,98962.32
2022-09-13T17:30:59.456Z,98958.06
2022-09-13T17:36:08.754Z,98955.40
2022-09-13T17:41:13.477Z,98946.70
2022-09-13T17:46:22.656Z,98943.91
2022-09-13T17:51:28.751Z,98944.55
2022-09-13T17:56:37.933Z,98947.11
2022-09-13T18:01:45.294Z,98947.05
2022-09-13T18:06:50.578Z,98943.52
2022-09-13T18:11:54.199Z,98943.48
2022-09-13T18:16:58.325Z,98941.30
2022-09-13T18:22:02.249Z,98939.73
2022-09-13T18:27:05.476Z,98944.10
2022-09-13T18:32:08.666Z,98941.25
2022-09-13T18:37:11.977Z,98939.09
2022-09-13T18:42:15.405Z,98939.54
2022-09-13T18:47:19.417Z,98932.73
2022-09-13T18:52:22.831Z,98927.29
2022-09-13T18:57:26.448Z,98928.28
2022-09-13T19:02:30.000Z,98928.53
2022-09-13T19:07:33.275Z,98923.07
2022-09-13T19:12:36.483Z,98915.36
2022-09-13T19:17:39.794Z,98912.91
2022-09-13T19:22:45.643Z,98910.80
2022-09-13T19:27:48.976Z,98909.56
2022-09-13T19:32:52.185Z,98913.33
2022-09-13T19:37:55.596Z,98909.88
2022-09-13T19:42:58.909Z,98898.47
2022-09-13T19:48:37.108Z,98894.29
2022-09-13T19:53:46.606Z,98884.96
2022-09-13T19:58:50.210Z,98880.86
2022-09-13T20:03:56.438Z,98878.83
2022-09-13T20:09:01.770Z,98877.37
2022-09-13T20:14:06.782Z,98882.83
2022-09-13T20:19:38.684Z,98880.09
2022-09-13T20:24:39.428Z,98874.02
2022-09-13T20:29:42.720Z,98876.30
2022-09-13T20:34:46.869Z,98879.33
2022-09-13T20:39:51.122Z,98869.02
2022-09-13T20:44:56.568Z,98867.73
2022-09-13T20:49:59.771Z,98863.48
2022-09-13T20:55:02.979Z,98855.05
2022-09-13T21:00:08.886Z,98851.37
2022-09-13T21:05:12.367Z,98861.60
2022-09-13T21:10:15.677Z,98854.20
2022-09-13T21:15:20.417Z,98848.04
2022-09-13T21:20:23.731Z,98838.53
2022-09-13T21:25:27.144Z,98848.58
2022-09-13T21:30:30.400Z,98842.17
2022-09-13T21:35:41.113Z,98844.27
2022-09-13T21:40:54.488Z,98851.79
2022-09-13T21:46:17.061Z,98858.91
2022-09-13T21:51:24.972Z,98853.81
2022-09-13T21:56:32.016Z,98848.92
2022-09-13T22:02:00.698Z,98850.73
2022-09-13T22:07:03.980Z,98856.30
2022-09-13T22:12:07.298Z,98852.59
2022-09-13T22:17:10.668Z,98852.52
2022-09-13T22:22:14.117Z,98849.24
2022-09-13T22:27:17.327Z,98846.23
2022-09-13T22:32:23.306Z,98840.50
2022-09-13T22:37:27.736Z,98842.38
2022-09-13T22:42:31.049Z,98842.29
2022-09-13T22:47:34.258Z,98834.48
2022-09-13T22:52:37.569Z,98824.83
2022-09-13T22:57:40.776Z,98821.33
2022-09-13T23:02:47.069Z,98817.55
2022-09-13T23:07:50.571Z,98813.45
2022-09-13T23:12:53.779Z,98812.90
2022-09-13T23:17:57.602Z,98812.69
2022-09-13T23:23:00.811Z,98812.97
2022-09-13T23:28:04.122Z,98800.46
2022-09-13T23:33:08.660Z,98797.08
2022-09-13T23:38:12.074Z,98795.89
2022-09-13T23:43:15.179Z,98792.80
2022-09-13T23:48:18.390Z,98791.56
2022-09-13T23:53:21.490Z,98784.77
2022-09-13T23:58:25.212Z,98778.85
